sensor_id;sensor_type;location;lat;lon;timestamp;temperature;humidity
5802;DHT22;2927;49.366;8.530;2023-08-31T00:01:39;13.70;99.90
5802;DHT22;2927;49.366;8.530;2023-08-31T00:04:04;13.80;99.90
5802;DHT22;2927;49.366;8.530;2023-08-31T00:06:32;13.70;99.90
5802;DHT22;2927;49.366;8.530;2023-08-31T00:08:57;13.70;99.90
5802;DHT22;2927;49.366;8.530;2023-08-31T00:11:23;13.70;99.90
5802;DHT22;2927;49.366;8.530;2023-08-31T00:13:49;13.60;99.90
5802;DHT22;2927;49.366;8.530;2023-08-31T00:16:15;13.60;99.90
5802;DHT22;2927;49.366;8.530;2023-08-31T00:18:40;13.50;99.90
5802;DHT22;2927;49.366;8.530;2023-08-31T00:21:06;13.50;99.90
5802;DHT22;2927;49.366;8.530;2023-08-31T00:23:31;13.40;99.90
5802;DHT22;2927;49.366;8.530;2023-08-31T00:25:57;13.40;99.90
5802;DHT22;2927;49.366;8.530;2023-08-31T00:28:23;13.40;99.90
5802;DHT22;2927;49.366;8.530;2023-08-31T00:30:48;13.30;99.90
5802;DHT22;2927;49.366;8.530;2023-08-31T00:33:14;13.30;99.90
5802;DHT22;2927;49.366;8.530;2023-08-31T00:35:41;13.30;99.90
5802;DHT22;2927;49.366;8.530;2023-08-31T00:38:12;13.20;99.90
5802;DHT22;2927;49.366;8.530;2023-08-31T00:40:41;13.20;99.90
5802;DHT22;2927;49.366;8.530;2023-08-31T00:43:09;13.20;99.90
5802;DHT22;2927;49.366;8.530;2023-08-31T00:45:36;13.20;99.90
5802;DHT22;2927;49.366;8.530;2023-08-31T00:48:02;13.20;99.90
5802;DHT22;2927;49.366;8.530;2023-08-31T00:50:28;13.10;99.90
5802;DHT22;2927;49.366;8.530;2023-08-31T00:52:53;13.10;99.90
5802;DHT22;2927;49.366;8.530;2023-08-31T00:55:19;13.10;99.90
5802;DHT22;2927;49.366;8.530;2023-08-31T00:57:45;13.10;99.90
5802;DHT22;2927;49.366;8.530;2023-08-31T01:00:11;13.10;99.90
5802;DHT22;2927;49.366;8.530;2023-08-31T01:02:59;13.10;99.90
5802;DHT22;2927;49.366;8.530;2023-08-31T01:11:48;13.00;99.90
5802;DHT22;2927;49.366;8.530;2023-08-31T01:14:17;13.00;99.90
5802;DHT22;2927;49.366;8.530;2023-08-31T01:16:46;13.00;99.90
5802;DHT22;2927;49.366;8.530;2023-08-31T01:21:54;13.00;99.90
5802;DHT22;2927;49.366;8.530;2023-08-31T01:24:22;12.90;99.90
5802;DHT22;2927;49.366;8.530;2023-08-31T01:26:48;12.90;99.90
5802;DHT22;2927;49.366;8.530;2023-08-31T01:29:14;12.90;99.90
5802;DHT22;2927;49.366;8.530;2023-08-31T01:31:43;12.90;99.90
5802;DHT22;2927;49.366;8.530;2023-08-31T01:34:10;12.90;99.90
5802;DHT22;2927;49.366;8.530;2023-08-31T01:36:38;12.90;99.90
5802;DHT22;2927;49.366;8.530;2023-08-31T01:39:35;12.90;99.90
5802;DHT22;2927;49.366;8.530;2023-08-31T01:42:05;12.90;99.90
5802;DHT22;2927;49.366;8.530;2023-08-31T01:44:33;13.00;99.90
5802;DHT22;2927;49.366;8.530;2023-08-31T01:47:04;13.00;99.90
5802;DHT22;2927;49.366;8.530;2023-08-31T01:49:39;13.00;99.90
5802;DHT22;2927;49.366;8.530;2023-08-31T01:52:05;13.00;99.90
5802;DHT22;2927;49.366;8.530;2023-08-31T01:54:31;13.00;99.90
5802;DHT22;2927;49.366;8.530;2023-08-31T01:56:57;12.90;99.90
5802;DHT22;2927;49.366;8.530;2023-08-31T01:59:23;12.90;99.90
5802;DHT22;2927;49.366;8.530;2023-08-31T02:01:48;12.90;99.90
5802;DHT22;2927;49.366;8.530;2023-08-31T02:04:14;12.80;99.90
5802;DHT22;2927;49.366;8.530;2023-08-31T02:06:39;12.90;99.90
5802;DHT22;2927;49.366;8.530;2023-08-31T02:09:06;12.90;99.90
5802;DHT22;2927;49.366;8.530;2023-08-31T02:11:31;12.80;99.90
5802;DHT22;2927;49.366;8.530;2023-08-31T02:13:58;12.90;99.90
5802;DHT22;2927;49.366;8.530;2023-08-31T02:16:23;12.90;99.90
5802;DHT22;2927;49.366;8.530;2023-08-31T02:18:49;12.80;99.90
5802;DHT22;2927;49.366;8.530;2023-08-31T02:21:14;12.90;99.90
5802;DHT22;2927;49.366;8.530;2023-08-31T02:23:40;12.90;99.90
5802;DHT22;2927;49.366;8.530;2023-08-31T02:26:06;12.80;99.90
5802;DHT22;2927;49.366;8.530;2023-08-31T02:28:31;12.80;99.90
5802;DHT22;2927;49.366;8.530;2023-08-31T02:30:58;12.80;99.90
5802;DHT22;2927;49.366;8.530;2023-08-31T02:33:25;12.80;99.90
5802;DHT22;2927;49.366;8.530;2023-08-31T02:35:50;12.70;99.90
5802;DHT22;2927;49.366;8.530;2023-08-31T02:38:16;12.70;99.90
5802;DHT22;2927;49.366;8.530;2023-08-31T02:40:41;12.70;99.90
5802;DHT22;2927;49.366;8.530;2023-08-31T02:43:07;12.70;99.90
5802;DHT22;2927;49.366;8.530;2023-08-31T02:45:33;12.70;99.90
5802;DHT22;2927;49.366;8.530;2023-08-31T02:47:58;12.70;99.90
5802;DHT22;2927;49.366;8.530;2023-08-31T02:50:24;12.70;99.90
5802;DHT22;2927;49.366;8.530;2023-08-31T02:52:49;12.60;99.90
5802;DHT22;2927;49.366;8.530;2023-08-31T02:55:15;12.70;99.90
5802;DHT22;2927;49.366;8.530;2023-08-31T02:57:41;12.60;99.90
5802;DHT22;2927;49.366;8.530;2023-08-31T03:00:06;12.60;99.90
5802;DHT22;2927;49.366;8.530;2023-08-31T03:02:36;12.60;99.90
5802;DHT22;2927;49.366;8.530;2023-08-31T03:05:02;12.70;99.90
5802;DHT22;2927;49.366;8.530;2023-08-31T03:07:27;12.60;99.90
5802;DHT22;2927;49.366;8.530;2023-08-31T03:09:53;12.60;99.90
5802;DHT22;2927;49.366;8.530;2023-08-31T03:12:18;12.60;99.90
5802;DHT22;2927;49.366;8.530;2023-08-31T03:14:44;12.60;99.90
5802;DHT22;2927;49.366;8.530;2023-08-31T03:17:09;12.60;99.90
5802;DHT22;2927;49.366;8.530;2023-08-31T03:19:35;12.60;99.90
5802;DHT22;2927;49.366;8.530;2023-08-31T03:22:00;12.60;99.90
5802;DHT22;2927;49.366;8.530;2023-08-31T03:24:26;12.60;99.90
5802;DHT22;2927;49.366;8.530;2023-08-31T03:26:52;12.60;99.90
5802;DHT22;2927;49.366;8.530;2023-08-31T03:29:17;12.60;99.90
5802;DHT22;2927;49.366;8.530;2023-08-31T03:31:43;12.60;99.90
5802;DHT22;2927;49.366;8.530;2023-08-31T03:34:08;12.60;99.90
5802;DHT22;2927;49.366;8.530;2023-08-31T03:36:34;12.60;99.90
5802;DHT22;2927;49.366;8.530;2023-08-31T03:38:59;12.60;99.90
5802;DHT22;2927;49.366;8.530;2023-08-31T03:41:25;12.60;99.90
5802;DHT22;2927;49.366;8.530;2023-08-31T03:43:50;12.60;99.90
5802;DHT22;2927;49.366;8.530;2023-08-31T03:46:16;12.60;99.90
5802;DHT22;2927;49.366;8.530;2023-08-31T03:48:42;12.60;99.90
5802;DHT22;2927;49.366;8.530;2023-08-31T03:51:07;12.60;99.90
5802;DHT22;2927;49.366;8.530;2023-08-31T03:53:33;12.70;99.90
5802;DHT22;2927;49.366;8.530;2023-08-31T03:55:58;12.60;99.90
5802;DHT22;2927;49.366;8.530;2023-08-31T03:58:24;12.60;99.90
5802;DHT22;2927;49.366;8.530;2023-08-31T04:00:50;12.70;99.90
5802;DHT22;2927;49.366;8.530;2023-08-31T04:03:15;12.60;99.90
5802;DHT22;2927;49.366;8.530;2023-08-31T04:05:41;12.50;99.90
5802;DHT22;2927;49.366;8.530;2023-08-31T04:08:07;12.50;99.90
5802;DHT22;2927;49.366;8.530;2023-08-31T04:10:33;12.50;99.90
5802;DHT22;2927;49.366;8.530;2023-08-31T04:12:59;12.50;99.90
5802;DHT22;2927;49.366;8.530;2023-08-31T04:15:24;12.60;99.90
5802;DHT22;2927;49.366;8.530;2023-08-31T04:17:50;12.60;99.90
5802;DHT22;2927;49.366;8.530;2023-08-31T04:20:16;12.50;99.90
5802;DHT22;2927;49.366;8.530;2023-08-31T04:22:41;12.50;99.90
5802;DHT22;2927;49.366;8.530;2023-08-31T04:25:07;12.50;99.90
5802;DHT22;2927;49.366;8.530;2023-08-31T04:27:33;12.50;99.90
5802;DHT22;2927;49.366;8.530;2023-08-31T04:30:00;12.50;99.90
5802;DHT22;2927;49.366;8.530;2023-08-31T04:32:26;12.60;99.90
5802;DHT22;2927;49.366;8.530;2023-08-31T04:34:51;12.50;99.90
5802;DHT22;2927;49.366;8.530;2023-08-31T04:37:17;12.60;99.90
5802;DHT22;2927;49.366;8.530;2023-08-31T04:39:43;12.60;99.90
5802;DHT22;2927;49.366;8.530;2023-08-31T04:42:08;12.60;99.90
5802;DHT22;2927;49.366;8.530;2023-08-31T04:44:34;12.50;99.90
5802;DHT22;2927;49.366;8.530;2023-08-31T04:47:00;12.60;99.90
5802;DHT22;2927;49.366;8.530;2023-08-31T04:49:26;12.60;99.90
5802;DHT22;2927;49.366;8.530;2023-08-31T04:51:52;12.50;99.90
5802;DHT22;2927;49.366;8.530;2023-08-31T04:54:18;12.60;99.90
5802;DHT22;2927;49.366;8.530;2023-08-31T04:56:43;12.60;99.90
5802;DHT22;2927;49.366;8.530;2023-08-31T04:59:09;12.60;99.90
5802;DHT22;2927;49.366;8.530;2023-08-31T05:01:34;12.60;99.90
5802;DHT22;2927;49.366;8.530;2023-08-31T05:04:00;12.60;99.90
5802;DHT22;2927;49.366;8.530;2023-08-31T05:06:26;12.60;99.90
5802;DHT22;2927;49.366;8.530;2023-08-31T05:08:52;12.60;99.90
5802;DHT22;2927;49.366;8.530;2023-08-31T05:11:17;12.60;99.90
5802;DHT22;2927;49.366;8.530;2023-08-31T05:13:43;12.50;99.90
5802;DHT22;2927;49.366;8.530;2023-08-31T05:16:09;12.50;99.90
5802;DHT22;2927;49.366;8.530;2023-08-31T05:18:34;12.50;99.90
5802;DHT22;2927;49.366;8.530;2023-08-31T05:21:01;12.50;99.90
5802;DHT22;2927;49.366;8.530;2023-08-31T05:23:27;12.50;99.90
5802;DHT22;2927;49.366;8.530;2023-08-31T05:25:52;12.60;99.90
5802;DHT22;2927;49.366;8.530;2023-08-31T05:28:18;12.70;99.90
5802;DHT22;2927;49.366;8.530;2023-08-31T05:30:50;12.70;99.90
5802;DHT22;2927;49.366;8.530;2023-08-31T05:33:17;12.70;99.90
5802;DHT22;2927;49.366;8.530;2023-08-31T05:35:43;12.80;99.90
5802;DHT22;2927;49.366;8.530;2023-08-31T05:38:09;12.90;99.90
5802;DHT22;2927;49.366;8.530;2023-08-31T05:40:34;12.90;99.90
5802;DHT22;2927;49.366;8.530;2023-08-31T05:43:00;13.00;99.90
5802;DHT22;2927;49.366;8.530;2023-08-31T05:45:25;13.00;99.90
5802;DHT22;2927;49.366;8.530;2023-08-31T05:47:51;13.10;99.90
5802;DHT22;2927;49.366;8.530;2023-08-31T05:50:16;13.20;99.90
5802;DHT22;2927;49.366;8.530;2023-08-31T05:52:42;13.30;99.90
5802;DHT22;2927;49.366;8.530;2023-08-31T05:55:10;13.30;99.90
5802;DHT22;2927;49.366;8.530;2023-08-31T05:57:36;13.40;99.90
5802;DHT22;2927;49.366;8.530;2023-08-31T06:00:03;13.50;99.90
5802;DHT22;2927;49.366;8.530;2023-08-31T06:02:29;13.60;99.90
5802;DHT22;2927;49.366;8.530;2023-08-31T06:04:54;13.60;99.90
5802;DHT22;2927;49.366;8.530;2023-08-31T06:07:20;13.70;99.90
5802;DHT22;2927;49.366;8.530;2023-08-31T06:09:45;13.70;99.90
5802;DHT22;2927;49.366;8.530;2023-08-31T06:12:11;13.70;99.90
5802;DHT22;2927;49.366;8.530;2023-08-31T06:14:36;13.90;99.90
5802;DHT22;2927;49.366;8.530;2023-08-31T06:17:02;13.90;99.90
5802;DHT22;2927;49.366;8.530;2023-08-31T06:19:28;13.90;99.90
5802;DHT22;2927;49.366;8.530;2023-08-31T06:21:53;14.00;99.90
5802;DHT22;2927;49.366;8.530;2023-08-31T06:24:19;14.00;99.90
5802;DHT22;2927;49.366;8.530;2023-08-31T06:26:44;14.10;99.90
5802;DHT22;2927;49.366;8.530;2023-08-31T06:29:10;14.10;99.90
5802;DHT22;2927;49.366;8.530;2023-08-31T06:31:36;14.20;99.90
5802;DHT22;2927;49.366;8.530;2023-08-31T06:34:01;14.20;99.90
5802;DHT22;2927;49.366;8.530;2023-08-31T06:36:27;14.40;99.90
5802;DHT22;2927;49.366;8.530;2023-08-31T06:38:53;14.40;99.90
5802;DHT22;2927;49.366;8.530;2023-08-31T06:41:18;14.50;99.90
5802;DHT22;2927;49.366;8.530;2023-08-31T06:43:44;14.70;99.90
5802;DHT22;2927;49.366;8.530;2023-08-31T06:46:11;15.00;99.90
5802;DHT22;2927;49.366;8.530;2023-08-31T06:48:36;15.40;99.90
5802;DHT22;2927;49.366;8.530;2023-08-31T06:51:02;15.70;99.90
5802;DHT22;2927;49.366;8.530;2023-08-31T06:53:29;16.00;99.90
5802;DHT22;2927;49.366;8.530;2023-08-31T06:55:56;16.10;99.90
5802;DHT22;2927;49.366;8.530;2023-08-31T06:58:22;16.20;99.90
5802;DHT22;2927;49.366;8.530;2023-08-31T07:00:47;16.20;99.90
5802;DHT22;2927;49.366;8.530;2023-08-31T07:03:13;16.90;99.90
5802;DHT22;2927;49.366;8.530;2023-08-31T07:05:42;17.10;1.00
5802;DHT22;2927;49.366;8.530;2023-08-31T07:08:08;17.60;1.00
5802;DHT22;2927;49.366;8.530;2023-08-31T07:10:34;18.30;99.90
5802;DHT22;2927;49.366;8.530;2023-08-31T07:13:02;19.80;1.00
5802;DHT22;2927;49.366;8.530;2023-08-31T07:15:29;22.00;1.00
5802;DHT22;2927;49.366;8.530;2023-08-31T07:17:54;23.20;1.00
5802;DHT22;2927;49.366;8.530;2023-08-31T07:20:20;22.60;1.00
5802;DHT22;2927;49.366;8.530;2023-08-31T07:22:45;21.50;1.00
5802;DHT22;2927;49.366;8.530;2023-08-31T07:25:11;21.30;24.40
5802;DHT22;2927;49.366;8.530;2023-08-31T07:27:37;23.10;1.00
5802;DHT22;2927;49.366;8.530;2023-08-31T07:30:04;24.90;99.90
5802;DHT22;2927;49.366;8.530;2023-08-31T07:32:30;26.50;99.90
5802;DHT22;2927;49.366;8.530;2023-08-31T07:34:56;27.40;99.90
5802;DHT22;2927;49.366;8.530;2023-08-31T07:37:23;28.40;13.80
5802;DHT22;2927;49.366;8.530;2023-08-31T07:39:49;27.50;1.00
5802;DHT22;2927;49.366;8.530;2023-08-31T07:42:14;26.20;1.00
5802;DHT22;2927;49.366;8.530;2023-08-31T07:44:40;25.80;28.50
5802;DHT22;2927;49.366;8.530;2023-08-31T07:47:07;25.00;62.00
5802;DHT22;2927;49.366;8.530;2023-08-31T07:49:33;24.70;99.90
5802;DHT22;2927;49.366;8.530;2023-08-31T07:51:59;24.90;99.90
5802;DHT22;2927;49.366;8.530;2023-08-31T07:54:24;24.70;99.90
5802;DHT22;2927;49.366;8.530;2023-08-31T07:56:51;23.90;99.90
5802;DHT22;2927;49.366;8.530;2023-08-31T07:59:17;23.30;99.90
5802;DHT22;2927;49.366;8.530;2023-08-31T08:01:43;22.30;99.90
5802;DHT22;2927;49.366;8.530;2023-08-31T08:04:09;22.20;99.90
5802;DHT22;2927;49.366;8.530;2023-08-31T08:06:35;21.90;99.90
5802;DHT22;2927;49.366;8.530;2023-08-31T08:09:00;21.40;99.90
5802;DHT22;2927;49.366;8.530;2023-08-31T08:11:26;20.70;1.00
5802;DHT22;2927;49.366;8.530;2023-08-31T08:13:51;20.40;1.00
5802;DHT22;2927;49.366;8.530;2023-08-31T08:16:17;20.00;1.00
5802;DHT22;2927;49.366;8.530;2023-08-31T08:18:42;19.80;1.00
5802;DHT22;2927;49.366;8.530;2023-08-31T08:21:08;19.90;1.00
5802;DHT22;2927;49.366;8.530;2023-08-31T08:23:33;20.50;1.00
5802;DHT22;2927;49.366;8.530;2023-08-31T08:25:59;22.50;99.90
5802;DHT22;2927;49.366;8.530;2023-08-31T08:28:25;24.80;99.90
5802;DHT22;2927;49.366;8.530;2023-08-31T08:30:51;26.80;1.00
5802;DHT22;2927;49.366;8.530;2023-08-31T08:33:17;26.70;1.00
5802;DHT22;2927;49.366;8.530;2023-08-31T08:35:42;25.30;1.00
5802;DHT22;2927;49.366;8.530;2023-08-31T08:38:08;24.10;1.00
5802;DHT22;2927;49.366;8.530;2023-08-31T08:40:34;23.10;32.40
5802;DHT22;2927;49.366;8.530;2023-08-31T08:43:06;22.20;96.30
5802;DHT22;2927;49.366;8.530;2023-08-31T08:45:37;21.80;99.90
5802;DHT22;2927;49.366;8.530;2023-08-31T08:48:05;22.10;99.90
5802;DHT22;2927;49.366;8.530;2023-08-31T08:50:32;23.70;99.90
5802;DHT22;2927;49.366;8.530;2023-08-31T08:52:59;25.60;4.20
5802;DHT22;2927;49.366;8.530;2023-08-31T08:55:25;26.00;1.00
5802;DHT22;2927;49.366;8.530;2023-08-31T08:57:51;25.50;1.00
5802;DHT22;2927;49.366;8.530;2023-08-31T09:00:16;24.70;1.00
5802;DHT22;2927;49.366;8.530;2023-08-31T09:02:42;23.90;1.00
5802;DHT22;2927;49.366;8.530;2023-08-31T09:05:08;23.40;1.00
5802;DHT22;2927;49.366;8.530;2023-08-31T09:07:37;22.60;1.00
5802;DHT22;2927;49.366;8.530;2023-08-31T09:10:04;22.10;11.50
5802;DHT22;2927;49.366;8.530;2023-08-31T09:12:30;22.00;92.50
5802;DHT22;2927;49.366;8.530;2023-08-31T09:15:00;21.80;99.90
5802;DHT22;2927;49.366;8.530;2023-08-31T09:17:33;21.90;63.80
5802;DHT22;2927;49.366;8.530;2023-08-31T09:20:02;22.00;47.30
5802;DHT22;2927;49.366;8.530;2023-08-31T09:22:32;22.10;13.40
5802;DHT22;2927;49.366;8.530;2023-08-31T09:24:58;22.20;10.90
5802;DHT22;2927;49.366;8.530;2023-08-31T09:27:24;22.70;15.80
5802;DHT22;2927;49.366;8.530;2023-08-31T09:29:50;23.90;1.00
5802;DHT22;2927;49.366;8.530;2023-08-31T09:32:17;23.90;1.00
5802;DHT22;2927;49.366;8.530;2023-08-31T09:34:43;24.10;1.00
5802;DHT22;2927;49.366;8.530;2023-08-31T09:37:08;24.50;1.00
5802;DHT22;2927;49.366;8.530;2023-08-31T09:39:39;26.10;1.00
5802;DHT22;2927;49.366;8.530;2023-08-31T09:42:05;27.10;1.00
5802;DHT22;2927;49.366;8.530;2023-08-31T09:44:31;27.20;1.00
5802;DHT22;2927;49.366;8.530;2023-08-31T09:46:57;27.30;1.00
5802;DHT22;2927;49.366;8.530;2023-08-31T09:49:24;26.20;1.00
5802;DHT22;2927;49.366;8.530;2023-08-31T09:51:50;25.20;1.00
5802;DHT22;2927;49.366;8.530;2023-08-31T09:54:17;24.20;1.00
5802;DHT22;2927;49.366;8.530;2023-08-31T09:56:45;25.00;1.00
5802;DHT22;2927;49.366;8.530;2023-08-31T09:59:12;26.80;1.00
5802;DHT22;2927;49.366;8.530;2023-08-31T10:01:42;28.00;1.00
5802;DHT22;2927;49.366;8.530;2023-08-31T10:04:09;28.40;1.00
5802;DHT22;2927;49.366;8.530;2023-08-31T10:06:35;28.30;1.00
5802;DHT22;2927;49.366;8.530;2023-08-31T10:09:04;27.40;1.00
5802;DHT22;2927;49.366;8.530;2023-08-31T10:11:30;26.70;1.00
5802;DHT22;2927;49.366;8.530;2023-08-31T10:13:56;26.20;1.00
5802;DHT22;2927;49.366;8.530;2023-08-31T10:16:23;25.90;1.00
5802;DHT22;2927;49.366;8.530;2023-08-31T10:18:50;25.80;1.00
5802;DHT22;2927;49.366;8.530;2023-08-31T10:21:17;25.50;1.00
5802;DHT22;2927;49.366;8.530;2023-08-31T10:23:50;25.00;1.00
5802;DHT22;2927;49.366;8.530;2023-08-31T10:26:27;24.80;1.00
5802;DHT22;2927;49.366;8.530;2023-08-31T10:28:52;24.70;1.00
5802;DHT22;2927;49.366;8.530;2023-08-31T10:31:19;24.60;1.00
5802;DHT22;2927;49.366;8.530;2023-08-31T10:36:46;24.70;1.00
5802;DHT22;2927;49.366;8.530;2023-08-31T10:39:14;24.80;1.00
5802;DHT22;2927;49.366;8.530;2023-08-31T10:41:41;24.70;1.00
5802;DHT22;2927;49.366;8.530;2023-08-31T10:44:21;24.60;1.00
5802;DHT22;2927;49.366;8.530;2023-08-31T10:46:48;24.60;1.00
5802;DHT22;2927;49.366;8.530;2023-08-31T10:49:15;24.40;1.00
5802;DHT22;2927;49.366;8.530;2023-08-31T10:51:45;24.00;1.00
5802;DHT22;2927;49.366;8.530;2023-08-31T10:56:54;24.00;1.00
5802;DHT22;2927;49.366;8.530;2023-08-31T10:59:21;24.00;1.00
5802;DHT22;2927;49.366;8.530;2023-08-31T11:01:59;24.00;1.00
5802;DHT22;2927;49.366;8.530;2023-08-31T11:04:29;24.10;1.00
5802;DHT22;2927;49.366;8.530;2023-08-31T11:07:17;24.00;1.00
5802;DHT22;2927;49.366;8.530;2023-08-31T11:09:43;24.10;1.00
5802;DHT22;2927;49.366;8.530;2023-08-31T11:12:09;24.00;1.00
5802;DHT22;2927;49.366;8.530;2023-08-31T11:14:35;23.90;1.00
5802;DHT22;2927;49.366;8.530;2023-08-31T11:17:01;24.00;1.00
5802;DHT22;2927;49.366;8.530;2023-08-31T11:19:30;24.30;1.00
5802;DHT22;2927;49.366;8.530;2023-08-31T11:21:55;24.30;1.00
5802;DHT22;2927;49.366;8.530;2023-08-31T11:24:21;24.40;1.00
5802;DHT22;2927;49.366;8.530;2023-08-31T11:26:51;24.60;1.00
5802;DHT22;2927;49.366;8.530;2023-08-31T11:29:17;24.80;1.00
5802;DHT22;2927;49.366;8.530;2023-08-31T11:31:43;24.50;1.00
5802;DHT22;2927;49.366;8.530;2023-08-31T11:34:16;24.10;1.00
5802;DHT22;2927;49.366;8.530;2023-08-31T11:36:43;24.10;1.00
5802;DHT22;2927;49.366;8.530;2023-08-31T11:39:10;24.00;1.00
5802;DHT22;2927;49.366;8.530;2023-08-31T11:41:37;23.60;1.00
5802;DHT22;2927;49.366;8.530;2023-08-31T11:44:08;23.40;1.00
5802;DHT22;2927;49.366;8.530;2023-08-31T11:46:35;23.30;1.00
5802;DHT22;2927;49.366;8.530;2023-08-31T11:49:01;23.30;1.00
5802;DHT22;2927;49.366;8.530;2023-08-31T11:51:30;23.50;1.00
5802;DHT22;2927;49.366;8.530;2023-08-31T11:53:56;23.50;1.00
5802;DHT22;2927;49.366;8.530;2023-08-31T11:56:25;23.40;1.00
5802;DHT22;2927;49.366;8.530;2023-08-31T11:58:51;23.60;1.00
5802;DHT22;2927;49.366;8.530;2023-08-31T12:01:21;24.00;1.00
5802;DHT22;2927;49.366;8.530;2023-08-31T12:03:47;24.20;1.00
5802;DHT22;2927;49.366;8.530;2023-08-31T12:06:19;24.30;1.00
5802;DHT22;2927;49.366;8.530;2023-08-31T12:08:44;23.80;1.00
5802;DHT22;2927;49.366;8.530;2023-08-31T12:11:12;23.70;1.00
5802;DHT22;2927;49.366;8.530;2023-08-31T12:13:37;23.60;1.00
5802;DHT22;2927;49.366;8.530;2023-08-31T12:16:03;23.30;1.00
5802;DHT22;2927;49.366;8.530;2023-08-31T12:18:30;23.40;1.00
5802;DHT22;2927;49.366;8.530;2023-08-31T12:20:59;23.50;1.00
5802;DHT22;2927;49.366;8.530;2023-08-31T12:23:25;23.60;1.00
5802;DHT22;2927;49.366;8.530;2023-08-31T12:25:53;23.70;1.00
5802;DHT22;2927;49.366;8.530;2023-08-31T12:28:19;23.80;1.00
5802;DHT22;2927;49.366;8.530;2023-08-31T12:30:50;23.70;1.00
5802;DHT22;2927;49.366;8.530;2023-08-31T12:33:16;23.50;1.00
5802;DHT22;2927;49.366;8.530;2023-08-31T12:35:43;23.50;1.00
5802;DHT22;2927;49.366;8.530;2023-08-31T12:38:08;23.30;1.00
5802;DHT22;2927;49.366;8.530;2023-08-31T12:40:34;23.30;1.00
5802;DHT22;2927;49.366;8.530;2023-08-31T12:43:00;23.30;1.00
5802;DHT22;2927;49.366;8.530;2023-08-31T12:45:25;23.20;1.00
5802;DHT22;2927;49.366;8.530;2023-08-31T12:47:51;23.20;1.00
5802;DHT22;2927;49.366;8.530;2023-08-31T12:50:17;23.00;1.00
5802;DHT22;2927;49.366;8.530;2023-08-31T12:52:43;23.10;1.00
5802;DHT22;2927;49.366;8.530;2023-08-31T12:55:14;22.90;1.00
5802;DHT22;2927;49.366;8.530;2023-08-31T12:57:41;22.90;1.00
5802;DHT22;2927;49.366;8.530;2023-08-31T13:00:07;22.70;1.00
5802;DHT22;2927;49.366;8.530;2023-08-31T13:02:42;22.80;1.00
5802;DHT22;2927;49.366;8.530;2023-08-31T13:05:10;23.00;1.00
5802;DHT22;2927;49.366;8.530;2023-08-31T13:07:37;23.30;1.00
5802;DHT22;2927;49.366;8.530;2023-08-31T13:10:04;23.40;1.00
5802;DHT22;2927;49.366;8.530;2023-08-31T13:12:30;23.70;1.00
5802;DHT22;2927;49.366;8.530;2023-08-31T13:14:56;23.30;1.00
5802;DHT22;2927;49.366;8.530;2023-08-31T13:17:23;23.20;1.00
5802;DHT22;2927;49.366;8.530;2023-08-31T13:19:56;22.80;1.00
5802;DHT22;2927;49.366;8.530;2023-08-31T13:22:25;22.60;1.00
5802;DHT22;2927;49.366;8.530;2023-08-31T13:24:53;22.80;1.00
5802;DHT22;2927;49.366;8.530;2023-08-31T13:27:19;23.00;1.00
5802;DHT22;2927;49.366;8.530;2023-08-31T13:29:44;22.80;1.00
5802;DHT22;2927;49.366;8.530;2023-08-31T13:32:11;22.70;1.00
5802;DHT22;2927;49.366;8.530;2023-08-31T13:34:37;22.90;1.00
5802;DHT22;2927;49.366;8.530;2023-08-31T13:37:04;22.80;1.00
5802;DHT22;2927;49.366;8.530;2023-08-31T13:39:30;22.90;1.00
5802;DHT22;2927;49.366;8.530;2023-08-31T13:41:56;22.90;1.00
5802;DHT22;2927;49.366;8.530;2023-08-31T13:44:22;22.60;1.00
5802;DHT22;2927;49.366;8.530;2023-08-31T13:46:48;22.60;1.00
5802;DHT22;2927;49.366;8.530;2023-08-31T13:49:15;22.80;1.00
5802;DHT22;2927;49.366;8.530;2023-08-31T13:51:43;22.70;1.00
5802;DHT22;2927;49.366;8.530;2023-08-31T13:54:11;22.70;1.00
5802;DHT22;2927;49.366;8.530;2023-08-31T13:56:37;22.80;1.00
5802;DHT22;2927;49.366;8.530;2023-08-31T13:59:03;22.90;1.00
5802;DHT22;2927;49.366;8.530;2023-08-31T14:01:29;23.00;1.00
5802;DHT22;2927;49.366;8.530;2023-08-31T14:03:55;23.00;1.00
5802;DHT22;2927;49.366;8.530;2023-08-31T14:06:26;22.90;1.00
5802;DHT22;2927;49.366;8.530;2023-08-31T14:08:51;22.40;1.00
5802;DHT22;2927;49.366;8.530;2023-08-31T14:11:17;22.30;1.00
5802;DHT22;2927;49.366;8.530;2023-08-31T14:13:43;22.30;1.00
5802;DHT22;2927;49.366;8.530;2023-08-31T14:16:12;22.10;1.00
5802;DHT22;2927;49.366;8.530;2023-08-31T14:18:38;22.10;1.00
5802;DHT22;2927;49.366;8.530;2023-08-31T14:21:03;22.20;1.00
5802;DHT22;2927;49.366;8.530;2023-08-31T14:23:29;22.10;1.00
5802;DHT22;2927;49.366;8.530;2023-08-31T14:26:01;22.00;1.00
5802;DHT22;2927;49.366;8.530;2023-08-31T14:28:28;21.70;1.00
5802;DHT22;2927;49.366;8.530;2023-08-31T14:30:53;21.50;1.00
5802;DHT22;2927;49.366;8.530;2023-08-31T14:33:19;21.10;1.00
5802;DHT22;2927;49.366;8.530;2023-08-31T14:35:44;21.00;1.00
5802;DHT22;2927;49.366;8.530;2023-08-31T14:38:11;20.90;1.00
5802;DHT22;2927;49.366;8.530;2023-08-31T14:40:40;20.80;1.00
5802;DHT22;2927;49.366;8.530;2023-08-31T14:43:07;20.70;1.00
5802;DHT22;2927;49.366;8.530;2023-08-31T14:45:33;20.60;8.80
5802;DHT22;2927;49.366;8.530;2023-08-31T14:47:58;20.50;15.60
5802;DHT22;2927;49.366;8.530;2023-08-31T14:50:24;20.50;32.80
5802;DHT22;2927;49.366;8.530;2023-08-31T14:52:49;20.40;76.10
5802;DHT22;2927;49.366;8.530;2023-08-31T14:55:15;20.30;70.30
5802;DHT22;2927;49.366;8.530;2023-08-31T14:57:40;20.40;61.80
5802;DHT22;2927;49.366;8.530;2023-08-31T15:00:08;20.50;83.70
5802;DHT22;2927;49.366;8.530;2023-08-31T15:02:34;20.60;99.90
5802;DHT22;2927;49.366;8.530;2023-08-31T15:05:00;20.70;99.90
5802;DHT22;2927;49.366;8.530;2023-08-31T15:07:25;20.60;88.20
5802;DHT22;2927;49.366;8.530;2023-08-31T15:09:52;20.60;92.70
5802;DHT22;2927;49.366;8.530;2023-08-31T15:12:18;20.60;99.90
5802;DHT22;2927;49.366;8.530;2023-08-31T15:14:43;20.70;70.80
5802;DHT22;2927;49.366;8.530;2023-08-31T15:17:09;20.60;92.20
5802;DHT22;2927;49.366;8.530;2023-08-31T15:19:34;20.70;96.20
5802;DHT22;2927;49.366;8.530;2023-08-31T15:22:00;20.70;77.30
5802;DHT22;2927;49.366;8.530;2023-08-31T15:24:25;20.70;90.60
5802;DHT22;2927;49.366;8.530;2023-08-31T15:26:51;20.60;91.00
5802;DHT22;2927;49.366;8.530;2023-08-31T15:29:17;20.50;99.90
5802;DHT22;2927;49.366;8.530;2023-08-31T15:31:42;20.40;99.90
5802;DHT22;2927;49.366;8.530;2023-08-31T15:34:11;20.40;99.90
5802;DHT22;2927;49.366;8.530;2023-08-31T15:36:36;20.40;99.90
5802;DHT22;2927;49.366;8.530;2023-08-31T15:39:02;20.60;99.90
5802;DHT22;2927;49.366;8.530;2023-08-31T15:41:28;20.70;99.90
5802;DHT22;2927;49.366;8.530;2023-08-31T15:43:59;20.70;99.90
5802;DHT22;2927;49.366;8.530;2023-08-31T15:46:25;20.50;99.90
5802;DHT22;2927;49.366;8.530;2023-08-31T15:48:51;20.40;99.90
5802;DHT22;2927;49.366;8.530;2023-08-31T15:51:16;20.30;99.90
5802;DHT22;2927;49.366;8.530;2023-08-31T15:53:42;20.10;99.90
5802;DHT22;2927;49.366;8.530;2023-08-31T15:56:08;20.10;99.90
5802;DHT22;2927;49.366;8.530;2023-08-31T15:58:33;19.90;99.90
5802;DHT22;2927;49.366;8.530;2023-08-31T16:00:59;19.80;99.90
5802;DHT22;2927;49.366;8.530;2023-08-31T16:03:29;19.80;99.90
5802;DHT22;2927;49.366;8.530;2023-08-31T16:05:58;19.80;99.90
5802;DHT22;2927;49.366;8.530;2023-08-31T16:08:25;19.70;99.90
5802;DHT22;2927;49.366;8.530;2023-08-31T16:10:50;19.60;99.90
5802;DHT22;2927;49.366;8.530;2023-08-31T16:13:16;19.50;99.90
5802;DHT22;2927;49.366;8.530;2023-08-31T16:15:45;19.50;99.90
5802;DHT22;2927;49.366;8.530;2023-08-31T16:18:12;19.40;99.90